sensor_id;sensor_type;location;lat;lon;timestamp;temperature;humidity
57620;DHT22;43442;45.766;4.878;2022-07-10T00:00:08;25;45
57620;DHT22;43442;45.766;4.878;2022-07-10T00:01:05;25;45
57620;DHT22;43442;45.766;4.878;2022-07-10T00:02:05;24.8;45
57620;DHT22;43442;45.766;4.878;2022-07-10T00:03:05;24.8;45
57620;DHT22;43442;45.766;4.878;2022-07-10T00:04:04;24.8;45
57620;DHT22;43442;45.766;4.878;2022-07-10T00:05:07;24.9;45
57620;DHT22;43442;45.766;4.878;2022-07-10T00:06:05;25;45
57620;DHT22;43442;45.766;4.878;2022-07-10T00:07:04;24.65;45
57620;DHT22;43442;45.766;4.878;2022-07-10T00:08:05;24.5;45
57620;DHT22;43442;45.766;4.878;2022-07-10T00:09:04;24.4;45
57620;DHT22;43442;45.766;4.878;2022-07-10T00:10:06;24.3;45
57620;DHT22;43442;45.766;4.878;2022-07-10T00:11:06;24.3;45
57620;DHT22;43442;45.766;4.878;2022-07-10T00:12:05;24.7;45
57620;DHT22;43442;45.766;4.878;2022-07-10T00:13:04;24.75;45
57620;DHT22;43442;45.766;4.878;2022-07-10T00:14:04;24.8;45
57620;DHT22;43442;45.766;4.878;2022-07-10T00:15:08;24.8;45
57620;DHT22;43442;45.766;4.878;2022-07-10T00:16:05;24.9;45
57620;DHT22;43442;45.766;4.878;2022-07-10T00:17:05;24.9;45
57620;DHT22;43442;45.766;4.878;2022-07-10T00:18:04;24.9;45
57620;DHT22;43442;45.766;4.878;2022-07-10T00:19:04;24.9;45
57620;DHT22;43442;45.766;4.878;2022-07-10T00:20:07;24.75;45
57620;DHT22;43442;45.766;4.878;2022-07-10T00:21:05;24.6;45
57620;DHT22;43442;45.766;4.878;2022-07-10T00:22:05;24.4;46
57620;DHT22;43442;45.766;4.878;2022-07-10T00:23:04;24.2;46
57620;DHT22;43442;45.766;4.878;2022-07-10T00:24:06;24.2;46
57620;DHT22;43442;45.766;4.878;2022-07-10T00:25:09;24.2;46
57620;DHT22;43442;45.766;4.878;2022-07-10T00:26:05;24.2;46
57620;DHT22;43442;45.766;4.878;2022-07-10T00:27:05;24.4;46
57620;DHT22;43442;45.766;4.878;2022-07-10T00:28:04;24.4;46
57620;DHT22;43442;45.766;4.878;2022-07-10T00:29:04;24.4;46
57620;DHT22;43442;45.766;4.878;2022-07-10T00:30:08;24.1;46
57620;DHT22;43442;45.766;4.878;2022-07-10T00:31:04;24.1;46
57620;DHT22;43442;45.766;4.878;2022-07-10T00:32:05;24.3;46
57620;DHT22;43442;45.766;4.878;2022-07-10T00:33:05;24.35;46
57620;DHT22;43442;45.766;4.878;2022-07-10T00:34:04;24.4;46
57620;DHT22;43442;45.766;4.878;2022-07-10T00:35:06;24.45;46
57620;DHT22;43442;45.766;4.878;2022-07-10T00:36:06;24.5;46
57620;DHT22;43442;45.766;4.878;2022-07-10T00:37:05;24.5;46
57620;DHT22;43442;45.766;4.878;2022-07-10T00:38:04;24.45;46
57620;DHT22;43442;45.766;4.878;2022-07-10T00:39:05;24.4;46
57620;DHT22;43442;45.766;4.878;2022-07-10T00:40:07;24.4;46
57620;DHT22;43442;45.766;4.878;2022-07-10T00:41:05;24.4;46
57620;DHT22;43442;45.766;4.878;2022-07-10T00:42:11;24.4;46
57620;DHT22;43442;45.766;4.878;2022-07-10T00:43:08;24.4;46
57620;DHT22;43442;45.766;4.878;2022-07-10T00:44:05;24.4;46
57620;DHT22;43442;45.766;4.878;2022-07-10T00:45:06;24.4;46
57620;DHT22;43442;45.766;4.878;2022-07-10T00:46:05;24.4;46
57620;DHT22;43442;45.766;4.878;2022-07-10T00:47:06;24.4;46
57620;DHT22;43442;45.766;4.878;2022-07-10T00:48:05;24.4;46
57620;DHT22;43442;45.766;4.878;2022-07-10T00:49:04;24.4;46
57620;DHT22;43442;45.766;4.878;2022-07-10T00:50:06;24.4;46
57620;DHT22;43442;45.766;4.878;2022-07-10T00:51:05;24.5;46
57620;DHT22;43442;45.766;4.878;2022-07-10T00:52:10;24.1;46
57620;DHT22;43442;45.766;4.878;2022-07-10T00:53:04;23.8;47
57620;DHT22;43442;45.766;4.878;2022-07-10T00:54:06;23.8;47
57620;DHT22;43442;45.766;4.878;2022-07-10T00:55:08;23.8;47
57620;DHT22;43442;45.766;4.878;2022-07-10T00:56:06;24;47
57620;DHT22;43442;45.766;4.878;2022-07-10T00:57:07;24.2;47
57620;DHT22;43442;45.766;4.878;2022-07-10T00:58:08;24.1;47
57620;DHT22;43442;45.766;4.878;2022-07-10T00:59:04;24.1;47
57620;DHT22;43442;45.766;4.878;2022-07-10T01:00:08;24.1;47
57620;DHT22;43442;45.766;4.878;2022-07-10T01:01:05;24.1;47
57620;DHT22;43442;45.766;4.878;2022-07-10T01:02:06;24.2;47
57620;DHT22;43442;45.766;4.878;2022-07-10T01:03:05;24.049999999999997;47
57620;DHT22;43442;45.766;4.878;2022-07-10T01:04:04;23.9;47
57620;DHT22;43442;45.766;4.878;2022-07-10T01:05:05;23.95;47
57620;DHT22;43442;45.766;4.878;2022-07-10T01:06:05;24;47
57620;DHT22;43442;45.766;4.878;2022-07-10T01:07:05;24;47
57620;DHT22;43442;45.766;4.878;2022-07-10T01:08:05;23.7;47
57620;DHT22;43442;45.766;4.878;2022-07-10T01:09:04;23.9;47
57620;DHT22;43442;45.766;4.878;2022-07-10T01:10:06;24.1;47
57620;DHT22;43442;45.766;4.878;2022-07-10T01:11:05;24.1;47
57620;DHT22;43442;45.766;4.878;2022-07-10T01:12:07;23.9;47
57620;DHT22;43442;45.766;4.878;2022-07-10T01:13:05;23.9;47
57620;DHT22;43442;45.766;4.878;2022-07-10T01:14:05;23.9;47
57620;DHT22;43442;45.766;4.878;2022-07-10T01:15:06;23.95;47
57620;DHT22;43442;45.766;4.878;2022-07-10T01:16:05;24;47
57620;DHT22;43442;45.766;4.878;2022-07-10T01:17:08;24;47
57620;DHT22;43442;45.766;4.878;2022-07-10T01:18:04;24;47
57620;DHT22;43442;45.766;4.878;2022-07-10T01:19:04;23.9;47
57620;DHT22;43442;45.766;4.878;2022-07-10T01:20:08;23.9;47
57620;DHT22;43442;45.766;4.878;2022-07-10T01:21:05;23.7;47
57620;DHT22;43442;45.766;4.878;2022-07-10T01:22:05;23.6;48
57620;DHT22;43442;45.766;4.878;2022-07-10T01:23:04;23.8;48
57620;DHT22;43442;45.766;4.878;2022-07-10T01:24:09;23.8;48
57620;DHT22;43442;45.766;4.878;2022-07-10T01:25:06;23.8;48
57620;DHT22;43442;45.766;4.878;2022-07-10T01:26:05;23.85;47.5
57620;DHT22;43442;45.766;4.878;2022-07-10T01:27:05;23.9;47
57620;DHT22;43442;45.766;4.878;2022-07-10T01:28:05;23.9;47
57620;DHT22;43442;45.766;4.878;2022-07-10T01:29:07;23.9;47
57620;DHT22;43442;45.766;4.878;2022-07-10T01:30:07;23.9;47
57620;DHT22;43442;45.766;4.878;2022-07-10T01:31:05;24;47
57620;DHT22;43442;45.766;4.878;2022-07-10T01:32:05;24;47
57620;DHT22;43442;45.766;4.878;2022-07-10T01:33:05;24;47
57620;DHT22;43442;45.766;4.878;2022-07-10T01:34:08;24;47
57620;DHT22;43442;45.766;4.878;2022-07-10T01:35:06;24;47
57620;DHT22;43442;45.766;4.878;2022-07-10T01:36:05;24;47
57620;DHT22;43442;45.766;4.878;2022-07-10T01:37:05;23.9;47
57620;DHT22;43442;45.766;4.878;2022-07-10T01:38:05;23.8;47
57620;DHT22;43442;45.766;4.878;2022-07-10T01:39:06;23.8;47
57620;DHT22;43442;45.766;4.878;2022-07-10T01:40:07;23.8;47
57620;DHT22;43442;45.766;4.878;2022-07-10T01:41:05;23.85;47
57620;DHT22;43442;45.766;4.878;2022-07-10T01:42:05;23.9;47
57620;DHT22;43442;45.766;4.878;2022-07-10T01:43:04;23.9;47
57620;DHT22;43442;45.766;4.878;2022-07-10T01:44:05;23.8;47
57620;DHT22;43442;45.766;4.878;2022-07-10T01:45:07;23.8;47
57620;DHT22;43442;45.766;4.878;2022-07-10T01:46:05;23.8;47
57620;DHT22;43442;45.766;4.878;2022-07-10T01:47:05;23.8;47
57620;DHT22;43442;45.766;4.878;2022-07-10T01:48:05;23.8;47
57620;DHT22;43442;45.766;4.878;2022-07-10T01:49:04;23.85;47
57620;DHT22;43442;45.766;4.878;2022-07-10T01:50:06;23.9;47
57620;DHT22;43442;45.766;4.878;2022-07-10T01:51:05;23.85;47
57620;DHT22;43442;45.766;4.878;2022-07-10T01:52:05;23.8;47
57620;DHT22;43442;45.766;4.878;2022-07-10T01:53:05;23.5;47
57620;DHT22;43442;45.766;4.878;2022-07-10T01:54:04;23.55;47
57620;DHT22;43442;45.766;4.878;2022-07-10T01:55:07;23.6;47
57620;DHT22;43442;45.766;4.878;2022-07-10T01:56:09;23.700000000000003;47
57620;DHT22;43442;45.766;4.878;2022-07-10T01:57:06;23.4;48
57620;DHT22;43442;45.766;4.878;2022-07-10T01:58:04;23.4;48
57620;DHT22;43442;45.766;4.878;2022-07-10T01:59:04;23.35;47.5
57620;DHT22;43442;45.766;4.878;2022-07-10T02:00:07;23.3;47
57620;DHT22;43442;45.766;4.878;2022-07-10T02:01:07;23.3;47
57620;DHT22;43442;45.766;4.878;2022-07-10T02:02:06;23.8;47
57620;DHT22;43442;45.766;4.878;2022-07-10T02:03:04;23.8;47
57620;DHT22;43442;45.766;4.878;2022-07-10T02:04:04;23.7;48
57620;DHT22;43442;45.766;4.878;2022-07-10T02:05:05;23.7;48
57620;DHT22;43442;45.766;4.878;2022-07-10T02:06:04;23.75;47.5
57620;DHT22;43442;45.766;4.878;2022-07-10T02:07:04;23.8;48
57620;DHT22;43442;45.766;4.878;2022-07-10T02:08:05;23.8;48
57620;DHT22;43442;45.766;4.878;2022-07-10T02:09:05;23.4;48.5
57620;DHT22;43442;45.766;4.878;2022-07-10T02:10:05;23.3;49
57620;DHT22;43442;45.766;4.878;2022-07-10T02:11:05;23.3;48
57620;DHT22;43442;45.766;4.878;2022-07-10T02:12:07;23.3;48
57620;DHT22;43442;45.766;4.878;2022-07-10T02:13:04;23.3;48
57620;DHT22;43442;45.766;4.878;2022-07-10T02:14:04;23.3;48
57620;DHT22;43442;45.766;4.878;2022-07-10T02:15:07;23.5;47
57620;DHT22;43442;45.766;4.878;2022-07-10T02:16:05;23.5;47
57620;DHT22;43442;45.766;4.878;2022-07-10T02:17:05;23.5;47
57620;DHT22;43442;45.766;4.878;2022-07-10T02:18:04;23.5;47
57620;DHT22;43442;45.766;4.878;2022-07-10T02:19:05;23.5;47
57620;DHT22;43442;45.766;4.878;2022-07-10T02:20:07;23.5;47
57620;DHT22;43442;45.766;4.878;2022-07-10T02:21:05;23.6;47
57620;DHT22;43442;45.766;4.878;2022-07-10T02:22:05;23.3;48
57620;DHT22;43442;45.766;4.878;2022-07-10T02:23:04;23.3;48
57620;DHT22;43442;45.766;4.878;2022-07-10T02:24:05;23.35;48
57620;DHT22;43442;45.766;4.878;2022-07-10T02:25:06;23.4;48
57620;DHT22;43442;45.766;4.878;2022-07-10T02:26:05;23.4;48
57620;DHT22;43442;45.766;4.878;2022-07-10T02:27:05;23.4;48
57620;DHT22;43442;45.766;4.878;2022-07-10T02:28:05;23.35;48
57620;DHT22;43442;45.766;4.878;2022-07-10T02:29:04;23.3;48
57620;DHT22;43442;45.766;4.878;2022-07-10T02:30:07;23.5;48
57620;DHT22;43442;45.766;4.878;2022-07-10T02:31:05;23.3;48
57620;DHT22;43442;45.766;4.878;2022-07-10T02:32:06;23.3;48
57620;DHT22;43442;45.766;4.878;2022-07-10T02:33:05;23.3;48
57620;DHT22;43442;45.766;4.878;2022-07-10T02:34:04;23.55;48
57620;DHT22;43442;45.766;4.878;2022-07-10T02:35:05;23.8;48
57620;DHT22;43442;45.766;4.878;2022-07-10T02:36:05;23.8;48
57620;DHT22;43442;45.766;4.878;2022-07-10T02:37:05;23.5;48
57620;DHT22;43442;45.766;4.878;2022-07-10T02:38:04;23.2;48
57620;DHT22;43442;45.766;4.878;2022-07-10T02:39:06;23.25;48.5
57620;DHT22;43442;45.766;4.878;2022-07-10T02:40:07;23.3;48
57620;DHT22;43442;45.766;4.878;2022-07-10T02:41:05;23.3;48
57620;DHT22;43442;45.766;4.878;2022-07-10T02:42:05;23.25;48
57620;DHT22;43442;45.766;4.878;2022-07-10T02:43:05;23.2;48
57620;DHT22;43442;45.766;4.878;2022-07-10T02:44:05;23.25;48.5
57620;DHT22;43442;45.766;4.878;2022-07-10T02:45:06;23.35;49
57620;DHT22;43442;45.766;4.878;2022-07-10T02:46:05;23.4;49
57620;DHT22;43442;45.766;4.878;2022-07-10T02:47:05;23.4;49
57620;DHT22;43442;45.766;4.878;2022-07-10T02:48:05;23.3;49
57620;DHT22;43442;45.766;4.878;2022-07-10T02:49:04;23.2;49
57620;DHT22;43442;45.766;4.878;2022-07-10T02:50:07;23;49
57620;DHT22;43442;45.766;4.878;2022-07-10T02:51:10;23;49
57620;DHT22;43442;45.766;4.878;2022-07-10T02:52:05;22.95;49
57620;DHT22;43442;45.766;4.878;2022-07-10T02:53:04;22.9;49
57620;DHT22;43442;45.766;4.878;2022-07-10T02:54:05;22.9;49
57620;DHT22;43442;45.766;4.878;2022-07-10T02:55:06;23.2;49
57620;DHT22;43442;45.766;4.878;2022-07-10T02:56:06;23.2;49
57620;DHT22;43442;45.766;4.878;2022-07-10T02:57:05;23.2;49
57620;DHT22;43442;45.766;4.878;2022-07-10T02:58:05;22.9;49
57620;DHT22;43442;45.766;4.878;2022-07-10T02:59:04;22.6;50
57620;DHT22;43442;45.766;4.878;2022-07-10T03:00:06;22.6;50
57620;DHT22;43442;45.766;4.878;2022-07-10T03:01:05;23;50
57620;DHT22;43442;45.766;4.878;2022-07-10T03:02:05;23;50
57620;DHT22;43442;45.766;4.878;2022-07-10T03:03:04;23.2;50
57620;DHT22;43442;45.766;4.878;2022-07-10T03:04:05;23.1;50
57620;DHT22;43442;45.766;4.878;2022-07-10T03:05:06;23;50
57620;DHT22;43442;45.766;4.878;2022-07-10T03:06:05;23;50
57620;DHT22;43442;45.766;4.878;2022-07-10T03:07:05;23;50
57620;DHT22;43442;45.766;4.878;2022-07-10T03:08:05;22.8;49.5
57620;DHT22;43442;45.766;4.878;2022-07-10T03:09:04;22.6;49
57620;DHT22;43442;45.766;4.878;2022-07-10T03:10:06;22.6;49
57620;DHT22;43442;45.766;4.878;2022-07-10T03:11:04;23.3;50
57620;DHT22;43442;45.766;4.878;2022-07-10T03:12:06;23.05;50
57620;DHT22;43442;45.766;4.878;2022-07-10T03:13:04;22.8;50
57620;DHT22;43442;45.766;4.878;2022-07-10T03:14:05;22.5;49
57620;DHT22;43442;45.766;4.878;2022-07-10T03:15:07;22.5;49
57620;DHT22;43442;45.766;4.878;2022-07-10T03:16:05;23;50
57620;DHT22;43442;45.766;4.878;2022-07-10T03:17:05;23;50
57620;DHT22;43442;45.766;4.878;2022-07-10T03:18:04;22.9;50
57620;DHT22;43442;45.766;4.878;2022-07-10T03:19:04;22.799999999999997;50
57620;DHT22;43442;45.766;4.878;2022-07-10T03:20:06;22.7;50
57620;DHT22;43442;45.766;4.878;2022-07-10T03:21:05;22.9;50
57620;DHT22;43442;45.766;4.878;2022-07-10T03:22:04;23.1;50
57620;DHT22;43442;45.766;4.878;2022-07-10T03:23:04;23.1;50
57620;DHT22;43442;45.766;4.878;2022-07-10T03:24:05;23.1;50
57620;DHT22;43442;45.766;4.878;2022-07-10T03:25:06;23;50.5
57620;DHT22;43442;45.766;4.878;2022-07-10T03:26:04;22.9;51
57620;DHT22;43442;45.766;4.878;2022-07-10T03:27:05;22.9;50
57620;DHT22;43442;45.766;4.878;2022-07-10T03:28:04;22.9;50
57620;DHT22;43442;45.766;4.878;2022-07-10T03:29:04;22.9;50
57620;DHT22;43442;45.766;4.878;2022-07-10T03:30:07;22.9;50
57620;DHT22;43442;45.766;4.878;2022-07-10T03:31:05;22.799999999999997;50.5
57620;DHT22;43442;45.766;4.878;2022-07-10T03:32:06;22.7;51
57620;DHT22;43442;45.766;4.878;2022-07-10T03:33:04;22.9;50
57620;DHT22;43442;45.766;4.878;2022-07-10T03:34:04;22.9;50
57620;DHT22;43442;45.766;4.878;2022-07-10T03:35:06;22.9;50
57620;DHT22;43442;45.766;4.878;2022-07-10T03:36:05;22.9;50
57620;DHT22;43442;45.766;4.878;2022-07-10T03:37:05;22.9;50
57620;DHT22;43442;45.766;4.878;2022-07-10T03:38:04;22.9;50
57620;DHT22;43442;45.766;4.878;2022-07-10T03:39:04;22.9;50
57620;DHT22;43442;45.766;4.878;2022-07-10T03:40:06;22.9;50
57620;DHT22;43442;45.766;4.878;2022-07-10T03:41:05;22.9;50
57620;DHT22;43442;45.766;4.878;2022-07-10T03:42:06;22.9;50.5
57620;DHT22;43442;45.766;4.878;2022-07-10T03:43:04;22.9;51
57620;DHT22;43442;45.766;4.878;2022-07-10T03:44:05;22.4;51
57620;DHT22;43442;45.766;4.878;2022-07-10T03:45:06;22.4;51
57620;DHT22;43442;45.766;4.878;2022-07-10T03:46:05;22.4;51
57620;DHT22;43442;45.766;4.878;2022-07-10T03:47:05;22.7;51
57620;DHT22;43442;45.766;4.878;2022-07-10T03:48:05;22.65;51
57620;DHT22;43442;45.766;4.878;2022-07-10T03:49:05;22.6;51
57620;DHT22;43442;45.766;4.878;2022-07-10T03:50:06;22.6;51
57620;DHT22;43442;45.766;4.878;2022-07-10T03:51:05;22.6;51
57620;DHT22;43442;45.766;4.878;2022-07-10T03:52:06;22.7;51
57620;DHT22;43442;45.766;4.878;2022-07-10T03:53:04;22.7;51
57620;DHT22;43442;45.766;4.878;2022-07-10T03:54:04;22.9;51
57620;DHT22;43442;45.766;4.878;2022-07-10T03:55:07;22.65;51
57620;DHT22;43442;45.766;4.878;2022-07-10T03:56:05;22.5;51.5
57620;DHT22;43442;45.766;4.878;2022-07-10T03:57:05;22.6;52
57620;DHT22;43442;45.766;4.878;2022-07-10T03:58:04;22.6;52
57620;DHT22;43442;45.766;4.878;2022-07-10T03:59:04;22.6;51
57620;DHT22;43442;45.766;4.878;2022-07-10T04:00:08;22.6;52
57620;DHT22;43442;45.766;4.878;2022-07-10T04:01:04;22.4;52
57620;DHT22;43442;45.766;4.878;2022-07-10T04:02:05;22.2;52
57620;DHT22;43442;45.766;4.878;2022-07-10T04:03:07;22.2;52
57620;DHT22;43442;45.766;4.878;2022-07-10T04:04:04;22.2;52
57620;DHT22;43442;45.766;4.878;2022-07-10T04:05:06;22.2;52
57620;DHT22;43442;45.766;4.878;2022-07-10T04:06:05;22.2;52
57620;DHT22;43442;45.766;4.878;2022-07-10T04:07:05;22.2;52
57620;DHT22;43442;45.766;4.878;2022-07-10T04:08:06;22.2;52
57620;DHT22;43442;45.766;4.878;2022-07-10T04:09:05;22.35;50
57620;DHT22;43442;45.766;4.878;2022-07-10T04:10:06;22.5;48
57620;DHT22;43442;45.766;4.878;2022-07-10T04:11:05;22.5;48
57620;DHT22;43442;45.766;4.878;2022-07-10T04:12:05;22.5;48
57620;DHT22;43442;45.766;4.878;2022-07-10T04:13:05;22.5;48
57620;DHT22;43442;45.766;4.878;2022-07-10T04:14:04;22.5;48
57620;DHT22;43442;45.766;4.878;2022-07-10T04:15:06;22.5;52
57620;DHT22;43442;45.766;4.878;2022-07-10T04:16:06;22.3;53
57620;DHT22;43442;45.766;4.878;2022-07-10T04:17:05;21.95;53
57620;DHT22;43442;45.766;4.878;2022-07-10T04:18:04;21.9;53
57620;DHT22;43442;45.766;4.878;2022-07-10T04:19:04;22.1;53
57620;DHT22;43442;45.766;4.878;2022-07-10T04:20:06;22;54
57620;DHT22;43442;45.766;4.878;2022-07-10T04:21:06;22;54
57620;DHT22;43442;45.766;4.878;2022-07-10T04:22:04;22.1;53.5
57620;DHT22;43442;45.766;4.878;2022-07-10T04:23:04;22.2;53
57620;DHT22;43442;45.766;4.878;2022-07-10T04:24:05;22.2;53
57620;DHT22;43442;45.766;4.878;2022-07-10T04:25:08;22.2;53
57620;DHT22;43442;45.766;4.878;2022-07-10T04:26:04;22.3;53
57620;DHT22;43442;45.766;4.878;2022-07-10T04:27:05;22.2;54
57620;DHT22;43442;45.766;4.878;2022-07-10T04:28:05;22.2;54
57620;DHT22;43442;45.766;4.878;2022-07-10T04:29:04;22.2;53.5
57620;DHT22;43442;45.766;4.878;2022-07-10T04:30:07;22.2;53
57620;DHT22;43442;45.766;4.878;2022-07-10T04:31:05;22.25;53.5
57620;DHT22;43442;45.766;4.878;2022-07-10T04:32:05;22.3;54
57620;DHT22;43442;45.766;4.878;2022-07-10T04:33:04;22.3;54
57620;DHT22;43442;45.766;4.878;2022-07-10T04:34:05;22.2;54
57620;DHT22;43442;45.766;4.878;2022-07-10T04:35:06;22.2;54
57620;DHT22;43442;45.766;4.878;2022-07-10T04:36:05;22.25;54.5
57620;DHT22;43442;45.766;4.878;2022-07-10T04:37:05;22.3;55
57620;DHT22;43442;45.766;4.878;2022-07-10T04:38:04;22.2;54
57620;DHT22;43442;45.766;4.878;2022-07-10T04:39:05;22.2;54
57620;DHT22;43442;45.766;4.878;2022-07-10T04:40:07;22.25;54
57620;DHT22;43442;45.766;4.878;2022-07-10T04:41:05;22.3;54
57620;DHT22;43442;45.766;4.878;2022-07-10T04:42:06;22.1;54
57620;DHT22;43442;45.766;4.878;2022-07-10T04:43:05;22.15;54.5
57620;DHT22;43442;45.766;4.878;2022-07-10T04:44:04;22.1;55
57620;DHT22;43442;45.766;4.878;2022-07-10T04:45:06;22;55
57620;DHT22;43442;45.766;4.878;2022-07-10T04:46:05;22;55
57620;DHT22;43442;45.766;4.878;2022-07-10T04:47:05;22.1;54.5
57620;DHT22;43442;45.766;4.878;2022-07-10T04:48:05;22.2;54
57620;DHT22;43442;45.766;4.878;2022-07-10T04:49:05;22.2;54
57620;DHT22;43442;45.766;4.878;2022-07-10T04:50:06;22.1;54
57620;DHT22;43442;45.766;4.878;2022-07-10T04:51:05;22;54
57620;DHT22;43442;45.766;4.878;2022-07-10T04:52:05;22.3;54
57620;DHT22;43442;45.766;4.878;2022-07-10T04:53:04;22.1;55
57620;DHT22;43442;45.766;4.878;2022-07-10T04:54:04;22.1;55
57620;DHT22;43442;45.766;4.878;2022-07-10T04:55:06;21.9;55
57620;DHT22;43442;45.766;4.878;2022-07-10T04:56:05;21.9;55
57620;DHT22;43442;45.766;4.878;2022-07-10T04:57:05;22.1;55
57620;DHT22;43442;45.766;4.878;2022-07-10T04:58:05;22.2;55
57620;DHT22;43442;45.766;4.878;2022-07-10T04:59:04;22.049999999999997;55
57620;DHT22;43442;45.766;4.878;2022-07-10T05:00:07;21.9;55
57620;DHT22;43442;45.766;4.878;2022-07-10T05:01:05;21.9;55
57620;DHT22;43442;45.766;4.878;2022-07-10T05:02:05;21.9;55
57620;DHT22;43442;45.766;4.878;2022-07-10T05:03:04;21.9;55
57620;DHT22;43442;45.766;4.878;2022-07-10T05:04:05;21.9;55
57620;DHT22;43442;45.766;4.878;2022-07-10T05:05:06;21.9;55
57620;DHT22;43442;45.766;4.878;2022-07-10T05:06:05;22.1;54.5
57620;DHT22;43442;45.766;4.878;2022-07-10T05:07:05;22.4;55
57620;DHT22;43442;45.766;4.878;2022-07-10T05:08:04;22.5;56
57620;DHT22;43442;45.766;4.878;2022-07-10T05:09:05;22;55
57620;DHT22;43442;45.766;4.878;2022-07-10T05:10:06;21.9;55
57620;DHT22;43442;45.766;4.878;2022-07-10T05:11:05;21.9;55
57620;DHT22;43442;45.766;4.878;2022-07-10T05:12:07;22.15;55
57620;DHT22;43442;45.766;4.878;2022-07-10T05:13:04;22;55
57620;DHT22;43442;45.766;4.878;2022-07-10T05:14:04;22;55
57620;DHT22;43442;45.766;4.878;2022-07-10T05:15:07;22.05;55
57620;DHT22;43442;45.766;4.878;2022-07-10T05:16:06;22.1;55
57620;DHT22;43442;45.766;4.878;2022-07-10T05:17:04;22;55
57620;DHT22;43442;45.766;4.878;2022-07-10T05:18:05;22.3;55
57620;DHT22;43442;45.766;4.878;2022-07-10T05:19:04;22.3;55
57620;DHT22;43442;45.766;4.878;2022-07-10T05:20:06;22.35;54.5
57620;DHT22;43442;45.766;4.878;2022-07-10T05:21:05;22.4;54
57620;DHT22;43442;45.766;4.878;2022-07-10T05:22:04;22.4;54
57620;DHT22;43442;45.766;4.878;2022-07-10T05:23:04;22.35;54.5
57620;DHT22;43442;45.766;4.878;2022-07-10T05:24:04;22.2;55
57620;DHT22;43442;45.766;4.878;2022-07-10T05:25:05;22.2;55
57620;DHT22;43442;45.766;4.878;2022-07-10T05:26:04;22.2;55
57620;DHT22;43442;45.766;4.878;2022-07-10T05:27:06;22.2;55
57620;DHT22;43442;45.766;4.878;2022-07-10T05:28:05;22.299999999999997;54.5
57620;DHT22;43442;45.766;4.878;2022-07-10T05:29:04;22.2;55
57620;DHT22;43442;45.766;4.878;2022-07-10T05:30:06;22.2;55
57620;DHT22;43442;45.766;4.878;2022-07-10T05:31:04;22.299999999999997;54.5
57620;DHT22;43442;45.766;4.878;2022-07-10T05:32:06;22.4;54
57620;DHT22;43442;45.766;4.878;2022-07-10T05:33:05;22.4;54
57620;DHT22;43442;45.766;4.878;2022-07-10T05:34:04;22.3;54
57620;DHT22;43442;45.766;4.878;2022-07-10T05:35:07;22.3;54
57620;DHT22;43442;45.766;4.878;2022-07-10T05:36:05;22.35;54
57620;DHT22;43442;45.766;4.878;2022-07-10T05:37:05;22.5;54.5
57620;DHT22;43442;45.766;4.878;2022-07-10T05:38:05;22.6;55
57620;DHT22;43442;45.766;4.878;2022-07-10T05:39:04;22.6;55
57620;DHT22;43442;45.766;4.878;2022-07-10T05:40:07;22.4;55
57620;DHT22;43442;45.766;4.878;2022-07-10T05:41:06;22.35;55
57620;DHT22;43442;45.766;4.878;2022-07-10T05:42:05;22.3;55
57620;DHT22;43442;45.766;4.878;2022-07-10T05:43:04;22.3;55
57620;DHT22;43442;45.766;4.878;2022-07-10T05:44:05;22.4;54
57620;DHT22;43442;45.766;4.878;2022-07-10T05:45:05;22.4;54
57620;DHT22;43442;45.766;4.878;2022-07-10T05:46:04;22.4;54
57620;DHT22;43442;45.766;4.878;2022-07-10T05:47:05;22.4;54
57620;DHT22;43442;45.766;4.878;2022-07-10T05:48:04;22.4;54
57620;DHT22;43442;45.766;4.878;2022-07-10T05:49:05;22.4;54
57620;DHT22;43442;45.766;4.878;2022-07-10T05:50:05;22.45;54
57620;DHT22;43442;45.766;4.878;2022-07-10T05:51:05;22.5;54
57620;DHT22;43442;45.766;4.878;2022-07-10T05:52:06;22.5;54
57620;DHT22;43442;45.766;4.878;2022-07-10T05:53:04;22.5;54
57620;DHT22;43442;45.766;4.878;2022-07-10T05:54:05;22.9;55
57620;DHT22;43442;45.766;4.878;2022-07-10T05:55:06;22.9;55
57620;DHT22;43442;45.766;4.878;2022-07-10T05:56:06;22.799999999999997;54.5
57620;DHT22;43442;45.766;4.878;2022-07-10T05:57:05;22.7;54
57620;DHT22;43442;45.766;4.878;2022-07-10T05:58:04;22.7;54
57620;DHT22;43442;45.766;4.878;2022-07-10T05:59:04;22.3;55
57620;DHT22;43442;45.766;4.878;2022-07-10T06:00:08;22.3;55
57620;DHT22;43442;45.766;4.878;2022-07-10T06:01:04;22.5;55
57620;DHT22;43442;45.766;4.878;2022-07-10T06:02:05;22.7;55
57620;DHT22;43442;45.766;4.878;2022-07-10T06:03:04;22.7;55
57620;DHT22;43442;45.766;4.878;2022-07-10T06:04:04;22.7;55
57620;DHT22;43442;45.766;4.878;2022-07-10T06:05:06;22.7;55
57620;DHT22;43442;45.766;4.878;2022-07-10T06:06:05;22.6;55
57620;DHT22;43442;45.766;4.878;2022-07-10T06:07:05;22.6;55
57620;DHT22;43442;45.766;4.878;2022-07-10T06:08:05;22.6;55
57620;DHT22;43442;45.766;4.878;2022-07-10T06:09:04;22.7;55
57620;DHT22;43442;45.766;4.878;2022-07-10T06:10:06;22.799999999999997;54.5
57620;DHT22;43442;45.766;4.878;2022-07-10T06:11:04;22.9;54
57620;DHT22;43442;45.766;4.878;2022-07-10T06:12:05;22.9;55
57620;DHT22;43442;45.766;4.878;2022-07-10T06:13:05;22.7;55
57620;DHT22;43442;45.766;4.878;2022-07-10T06:14:04;22.7;55
57620;DHT22;43442;45.766;4.878;2022-07-10T06:15:06;22.7;55
57620;DHT22;43442;45.766;4.878;2022-07-10T06:16:05;22.5;55
57620;DHT22;43442;45.766;4.878;2022-07-10T06:17:05;22.3;55
57620;DHT22;43442;45.766;4.878;2022-07-10T06:18:05;22.3;55
57620;DHT22;43442;45.766;4.878;2022-07-10T06:19:05;23;55
57620;DHT22;43442;45.766;4.878;2022-07-10T06:20:06;23;55
57620;DHT22;43442;45.766;4.878;2022-07-10T06:21:05;23;55
57620;DHT22;43442;45.766;4.878;2022-07-10T06:22:05;23;55
57620;DHT22;43442;45.766;4.878;2022-07-10T06:23:04;23;55
57620;DHT22;43442;45.766;4.878;2022-07-10T06:24:05;22.85;55
57620;DHT22;43442;45.766;4.878;2022-07-10T06:25:08;22.7;55
57620;DHT22;43442;45.766;4.878;2022-07-10T06:26:05;22.7;55
57620;DHT22;43442;45.766;4.878;2022-07-10T06:27:05;22.7;55
57620;DHT22;43442;45.766;4.878;2022-07-10T06:28:06;23.2;55
57620;DHT22;43442;45.766;4.878;2022-07-10T06:29:04;23.2;55
57620;DHT22;43442;45.766;4.878;2022-07-10T06:30:06;23.049999999999997;55
57620;DHT22;43442;45.766;4.878;2022-07-10T06:31:05;22.9;55
57620;DHT22;43442;45.766;4.878;2022-07-10T06:32:05;22.9;55
57620;DHT22;43442;45.766;4.878;2022-07-10T06:33:05;23.4;56
57620;DHT22;43442;45.766;4.878;2022-07-10T06:34:04;23;55
57620;DHT22;43442;45.766;4.878;2022-07-10T06:35:05;22.9;56
57620;DHT22;43442;45.766;4.878;2022-07-10T06:36:06;22.95;55.5
57620;DHT22;43442;45.766;4.878;2022-07-10T06:37:05;22.85;55.5
57620;DHT22;43442;45.766;4.878;2022-07-10T06:38:05;22.7;56
57620;DHT22;43442;45.766;4.878;2022-07-10T06:39:04;22.7;56
57620;DHT22;43442;45.766;4.878;2022-07-10T06:40:07;22.9;54
57620;DHT22;43442;45.766;4.878;2022-07-10T06:41:05;22.9;54